sensor_id;sensor_type;location;lat;lon;timestamp;temperature;humidity
23540;DHT22;11947;50.810;4.394;2023-05-13T00:00:13;14.10;99.90
23540;DHT22;11947;50.810;4.394;2023-05-13T00:02:38;14.00;99.90
23540;DHT22;11947;50.810;4.394;2023-05-13T00:05:04;13.90;99.90
23540;DHT22;11947;50.810;4.394;2023-05-13T00:07:30;13.90;99.90
23540;DHT22;11947;50.810;4.394;2023-05-13T00:09:56;13.80;99.90
23540;DHT22;11947;50.810;4.394;2023-05-13T00:12:22;13.80;99.90
23540;DHT22;11947;50.810;4.394;2023-05-13T00:14:48;13.70;99.90
23540;DHT22;11947;50.810;4.394;2023-05-13T00:17:13;13.70;99.90
23540;DHT22;11947;50.810;4.394;2023-05-13T00:19:39;13.70;99.90
23540;DHT22;11947;50.810;4.394;2023-05-13T00:22:05;13.70;99.90
23540;DHT22;11947;50.810;4.394;2023-05-13T00:24:31;13.60;99.90
23540;DHT22;11947;50.810;4.394;2023-05-13T00:26:57;13.60;99.90
23540;DHT22;11947;50.810;4.394;2023-05-13T00:29:22;13.60;99.90
23540;DHT22;11947;50.810;4.394;2023-05-13T00:31:48;13.50;99.90
23540;DHT22;11947;50.810;4.394;2023-05-13T00:34:14;13.50;99.90
23540;DHT22;11947;50.810;4.394;2023-05-13T00:36:39;13.40;99.90
23540;DHT22;11947;50.810;4.394;2023-05-13T00:39:05;13.40;99.90
23540;DHT22;11947;50.810;4.394;2023-05-13T00:41:31;13.50;99.90
23540;DHT22;11947;50.810;4.394;2023-05-13T00:43:56;13.50;99.90
23540;DHT22;11947;50.810;4.394;2023-05-13T00:46:23;13.50;99.90
23540;DHT22;11947;50.810;4.394;2023-05-13T00:48:49;13.50;99.90
23540;DHT22;11947;50.810;4.394;2023-05-13T00:51:15;13.40;99.90
23540;DHT22;11947;50.810;4.394;2023-05-13T00:53:41;13.40;99.90
23540;DHT22;11947;50.810;4.394;2023-05-13T00:56:07;13.40;99.90
23540;DHT22;11947;50.810;4.394;2023-05-13T00:58:33;13.40;99.90
23540;DHT22;11947;50.810;4.394;2023-05-13T01:01:20;13.40;99.90
23540;DHT22;11947;50.810;4.394;2023-05-13T01:07:07;13.20;99.90
23540;DHT22;11947;50.810;4.394;2023-05-13T01:09:59;13.20;99.90
23540;DHT22;11947;50.810;4.394;2023-05-13T01:12:34;13.20;99.90
23540;DHT22;11947;50.810;4.394;2023-05-13T01:15:06;13.20;99.90
23540;DHT22;11947;50.810;4.394;2023-05-13T01:18:24;13.20;99.90
23540;DHT22;11947;50.810;4.394;2023-05-13T01:20:31;13.20;99.90
23540;DHT22;11947;50.810;4.394;2023-05-13T01:22:57;13.20;99.90
23540;DHT22;11947;50.810;4.394;2023-05-13T01:25:23;13.10;99.90
23540;DHT22;11947;50.810;4.394;2023-05-13T01:27:50;13.10;99.90
23540;DHT22;11947;50.810;4.394;2023-05-13T01:30:16;13.20;99.90
23540;DHT22;11947;50.810;4.394;2023-05-13T01:32:43;13.20;99.90
23540;DHT22;11947;50.810;4.394;2023-05-13T01:35:10;13.30;99.90
23540;DHT22;11947;50.810;4.394;2023-05-13T01:37:36;13.30;99.90
23540;DHT22;11947;50.810;4.394;2023-05-13T01:40:04;13.30;99.90
23540;DHT22;11947;50.810;4.394;2023-05-13T01:42:31;13.30;99.90
23540;DHT22;11947;50.810;4.394;2023-05-13T01:44:57;13.30;99.90
23540;DHT22;11947;50.810;4.394;2023-05-13T01:47:22;13.30;99.90
23540;DHT22;11947;50.810;4.394;2023-05-13T01:49:48;13.30;99.90
23540;DHT22;11947;50.810;4.394;2023-05-13T01:52:14;13.40;99.90
23540;DHT22;11947;50.810;4.394;2023-05-13T01:54:39;13.40;99.90
23540;DHT22;11947;50.810;4.394;2023-05-13T01:57:05;13.40;99.90
23540;DHT22;11947;50.810;4.394;2023-05-13T01:59:31;13.50;99.90
23540;DHT22;11947;50.810;4.394;2023-05-13T02:01:56;13.50;99.90
23540;DHT22;11947;50.810;4.394;2023-05-13T02:04:22;13.50;99.90
23540;DHT22;11947;50.810;4.394;2023-05-13T02:06:48;13.40;99.90
23540;DHT22;11947;50.810;4.394;2023-05-13T02:09:13;13.40;99.90
23540;DHT22;11947;50.810;4.394;2023-05-13T02:11:39;13.30;99.90
23540;DHT22;11947;50.810;4.394;2023-05-13T02:14:05;13.20;99.90
23540;DHT22;11947;50.810;4.394;2023-05-13T02:16:31;13.30;99.90
23540;DHT22;11947;50.810;4.394;2023-05-13T02:18:56;13.30;99.90
23540;DHT22;11947;50.810;4.394;2023-05-13T02:21:22;13.30;99.90
23540;DHT22;11947;50.810;4.394;2023-05-13T02:23:47;13.20;99.90
23540;DHT22;11947;50.810;4.394;2023-05-13T02:26:13;13.20;99.90
23540;DHT22;11947;50.810;4.394;2023-05-13T02:28:39;13.20;99.90
23540;DHT22;11947;50.810;4.394;2023-05-13T02:31:04;13.30;99.90
23540;DHT22;11947;50.810;4.394;2023-05-13T02:33:31;13.30;99.90
23540;DHT22;11947;50.810;4.394;2023-05-13T02:35:56;13.20;99.90
23540;DHT22;11947;50.810;4.394;2023-05-13T02:38:22;13.30;99.90
23540;DHT22;11947;50.810;4.394;2023-05-13T02:40:48;13.20;99.90
23540;DHT22;11947;50.810;4.394;2023-05-13T02:43:13;13.20;99.90
23540;DHT22;11947;50.810;4.394;2023-05-13T02:45:39;13.10;99.90
23540;DHT22;11947;50.810;4.394;2023-05-13T02:48:06;13.00;99.90
23540;DHT22;11947;50.810;4.394;2023-05-13T02:50:31;13.00;99.90
23540;DHT22;11947;50.810;4.394;2023-05-13T02:52:57;13.00;99.90
23540;DHT22;11947;50.810;4.394;2023-05-13T02:55:23;13.00;99.90
23540;DHT22;11947;50.810;4.394;2023-05-13T02:57:48;12.90;99.90
23540;DHT22;11947;50.810;4.394;2023-05-13T03:00:14;12.90;99.90
23540;DHT22;11947;50.810;4.394;2023-05-13T03:02:40;12.90;99.90
23540;DHT22;11947;50.810;4.394;2023-05-13T03:05:06;12.90;99.90
23540;DHT22;11947;50.810;4.394;2023-05-13T03:07:32;13.00;99.90
23540;DHT22;11947;50.810;4.394;2023-05-13T03:09:58;13.00;99.90
23540;DHT22;11947;50.810;4.394;2023-05-13T03:12:24;12.90;99.90
23540;DHT22;11947;50.810;4.394;2023-05-13T03:14:50;12.90;99.90
23540;DHT22;11947;50.810;4.394;2023-05-13T03:17:15;13.00;99.90
23540;DHT22;11947;50.810;4.394;2023-05-13T03:19:41;13.10;99.90
23540;DHT22;11947;50.810;4.394;2023-05-13T03:22:07;13.10;99.90
23540;DHT22;11947;50.810;4.394;2023-05-13T03:24:33;13.10;99.90
23540;DHT22;11947;50.810;4.394;2023-05-13T03:26:58;13.10;99.90
23540;DHT22;11947;50.810;4.394;2023-05-13T03:29:24;13.10;99.90
23540;DHT22;11947;50.810;4.394;2023-05-13T03:31:51;13.10;99.90
23540;DHT22;11947;50.810;4.394;2023-05-13T03:34:17;13.20;99.90
23540;DHT22;11947;50.810;4.394;2023-05-13T03:36:43;13.20;99.90
23540;DHT22;11947;50.810;4.394;2023-05-13T03:39:08;13.20;99.90
23540;DHT22;11947;50.810;4.394;2023-05-13T03:41:35;13.20;99.90
23540;DHT22;11947;50.810;4.394;2023-05-13T03:44:01;13.10;99.90
23540;DHT22;11947;50.810;4.394;2023-05-13T03:46:27;13.20;99.90
23540;DHT22;11947;50.810;4.394;2023-05-13T03:48:53;13.30;99.90
23540;DHT22;11947;50.810;4.394;2023-05-13T03:51:21;13.30;99.90
23540;DHT22;11947;50.810;4.394;2023-05-13T03:53:47;13.20;99.90
23540;DHT22;11947;50.810;4.394;2023-05-13T03:56:13;13.10;99.90
23540;DHT22;11947;50.810;4.394;2023-05-13T03:58:39;13.10;99.90
23540;DHT22;11947;50.810;4.394;2023-05-13T04:01:06;13.10;99.90
23540;DHT22;11947;50.810;4.394;2023-05-13T04:03:32;13.10;99.90
23540;DHT22;11947;50.810;4.394;2023-05-13T04:05:58;13.10;99.90
23540;DHT22;11947;50.810;4.394;2023-05-13T04:08:24;13.10;99.90
23540;DHT22;11947;50.810;4.394;2023-05-13T04:10:50;13.10;99.90
23540;DHT22;11947;50.810;4.394;2023-05-13T04:13:16;13.00;99.90
23540;DHT22;11947;50.810;4.394;2023-05-13T04:15:41;12.90;99.90
23540;DHT22;11947;50.810;4.394;2023-05-13T04:18:07;12.90;99.90
23540;DHT22;11947;50.810;4.394;2023-05-13T04:20:32;12.80;99.90
23540;DHT22;11947;50.810;4.394;2023-05-13T04:22:58;12.80;99.90
23540;DHT22;11947;50.810;4.394;2023-05-13T04:25:24;12.80;99.90
23540;DHT22;11947;50.810;4.394;2023-05-13T04:27:49;12.90;99.90
23540;DHT22;11947;50.810;4.394;2023-05-13T04:30:15;12.90;99.90
23540;DHT22;11947;50.810;4.394;2023-05-13T04:32:41;13.00;99.90
23540;DHT22;11947;50.810;4.394;2023-05-13T04:35:06;13.00;99.90
23540;DHT22;11947;50.810;4.394;2023-05-13T04:37:32;13.00;99.90
23540;DHT22;11947;50.810;4.394;2023-05-13T04:39:58;13.00;99.90
23540;DHT22;11947;50.810;4.394;2023-05-13T04:42:23;13.10;99.90
23540;DHT22;11947;50.810;4.394;2023-05-13T04:44:49;13.00;99.90
23540;DHT22;11947;50.810;4.394;2023-05-13T04:47:15;13.10;99.90
23540;DHT22;11947;50.810;4.394;2023-05-13T04:49:41;13.10;99.90
23540;DHT22;11947;50.810;4.394;2023-05-13T04:52:06;13.10;99.90
23540;DHT22;11947;50.810;4.394;2023-05-13T04:54:33;13.10;99.90
23540;DHT22;11947;50.810;4.394;2023-05-13T04:57:00;13.20;99.90
23540;DHT22;11947;50.810;4.394;2023-05-13T04:59:26;13.30;99.90
23540;DHT22;11947;50.810;4.394;2023-05-13T05:01:52;13.30;99.90
23540;DHT22;11947;50.810;4.394;2023-05-13T05:04:18;13.30;99.90
23540;DHT22;11947;50.810;4.394;2023-05-13T05:06:43;13.40;99.90
23540;DHT22;11947;50.810;4.394;2023-05-13T05:09:09;13.50;99.90
23540;DHT22;11947;50.810;4.394;2023-05-13T05:11:36;13.50;99.90
23540;DHT22;11947;50.810;4.394;2023-05-13T05:14:02;13.50;99.90
23540;DHT22;11947;50.810;4.394;2023-05-13T05:16:28;13.50;99.90
23540;DHT22;11947;50.810;4.394;2023-05-13T05:18:53;13.50;99.90
23540;DHT22;11947;50.810;4.394;2023-05-13T05:21:19;13.50;99.90
23540;DHT22;11947;50.810;4.394;2023-05-13T05:23:45;13.50;99.90
23540;DHT22;11947;50.810;4.394;2023-05-13T05:26:11;13.60;99.90
23540;DHT22;11947;50.810;4.394;2023-05-13T05:28:37;13.60;99.90
23540;DHT22;11947;50.810;4.394;2023-05-13T05:31:04;13.60;99.90
23540;DHT22;11947;50.810;4.394;2023-05-13T05:33:30;13.60;99.90
23540;DHT22;11947;50.810;4.394;2023-05-13T05:35:56;13.60;99.90
23540;DHT22;11947;50.810;4.394;2023-05-13T05:38:22;13.60;99.90
23540;DHT22;11947;50.810;4.394;2023-05-13T05:40:49;13.60;99.90
23540;DHT22;11947;50.810;4.394;2023-05-13T05:43:15;13.60;99.90
23540;DHT22;11947;50.810;4.394;2023-05-13T05:45:42;13.60;99.90
23540;DHT22;11947;50.810;4.394;2023-05-13T05:48:08;13.60;99.90
23540;DHT22;11947;50.810;4.394;2023-05-13T05:50:34;13.60;99.90
23540;DHT22;11947;50.810;4.394;2023-05-13T05:53:01;13.60;99.90
23540;DHT22;11947;50.810;4.394;2023-05-13T05:55:27;13.80;99.90
23540;DHT22;11947;50.810;4.394;2023-05-13T05:57:56;14.00;99.90
23540;DHT22;11947;50.810;4.394;2023-05-13T06:00:22;14.30;99.90
23540;DHT22;11947;50.810;4.394;2023-05-13T06:02:48;14.50;99.90
23540;DHT22;11947;50.810;4.394;2023-05-13T06:05:14;14.70;99.90
23540;DHT22;11947;50.810;4.394;2023-05-13T06:07:40;14.90;99.90
23540;DHT22;11947;50.810;4.394;2023-05-13T06:10:06;15.10;99.90
23540;DHT22;11947;50.810;4.394;2023-05-13T06:12:32;15.20;99.90
23540;DHT22;11947;50.810;4.394;2023-05-13T06:14:58;15.30;99.90
23540;DHT22;11947;50.810;4.394;2023-05-13T06:17:24;15.40;99.90
23540;DHT22;11947;50.810;4.394;2023-05-13T06:19:50;15.50;99.90
23540;DHT22;11947;50.810;4.394;2023-05-13T06:22:15;15.60;99.90
23540;DHT22;11947;50.810;4.394;2023-05-13T06:24:41;15.70;99.90
23540;DHT22;11947;50.810;4.394;2023-05-13T06:27:10;15.90;99.90
23540;DHT22;11947;50.810;4.394;2023-05-13T06:29:36;16.00;99.90
23540;DHT22;11947;50.810;4.394;2023-05-13T06:32:02;16.30;99.90
23540;DHT22;11947;50.810;4.394;2023-05-13T06:34:28;16.50;99.90
23540;DHT22;11947;50.810;4.394;2023-05-13T06:36:54;16.70;99.90
23540;DHT22;11947;50.810;4.394;2023-05-13T06:39:20;16.90;99.90
23540;DHT22;11947;50.810;4.394;2023-05-13T06:41:45;17.20;99.90
23540;DHT22;11947;50.810;4.394;2023-05-13T06:44:11;17.40;99.90
23540;DHT22;11947;50.810;4.394;2023-05-13T06:46:37;17.60;99.90
23540;DHT22;11947;50.810;4.394;2023-05-13T06:49:02;17.70;99.90
23540;DHT22;11947;50.810;4.394;2023-05-13T06:51:28;17.90;99.90
23540;DHT22;11947;50.810;4.394;2023-05-13T06:53:55;18.20;99.90
23540;DHT22;11947;50.810;4.394;2023-05-13T06:56:20;18.30;99.90
23540;DHT22;11947;50.810;4.394;2023-05-13T06:58:48;18.50;99.90
23540;DHT22;11947;50.810;4.394;2023-05-13T07:01:15;18.70;99.90
23540;DHT22;11947;50.810;4.394;2023-05-13T07:03:44;18.70;99.90
23540;DHT22;11947;50.810;4.394;2023-05-13T07:06:10;18.80;99.90
23540;DHT22;11947;50.810;4.394;2023-05-13T07:08:36;18.90;99.90
23540;DHT22;11947;50.810;4.394;2023-05-13T07:11:01;18.90;99.90
23540;DHT22;11947;50.810;4.394;2023-05-13T07:13:27;19.10;99.90
23540;DHT22;11947;50.810;4.394;2023-05-13T07:15:54;19.30;99.90
23540;DHT22;11947;50.810;4.394;2023-05-13T07:18:20;19.30;99.90
23540;DHT22;11947;50.810;4.394;2023-05-13T07:20:45;19.50;99.90
23540;DHT22;11947;50.810;4.394;2023-05-13T07:23:11;19.50;99.90
23540;DHT22;11947;50.810;4.394;2023-05-13T07:25:37;19.70;99.90
23540;DHT22;11947;50.810;4.394;2023-05-13T07:28:02;19.90;99.90
23540;DHT22;11947;50.810;4.394;2023-05-13T07:30:28;20.10;99.90
23540;DHT22;11947;50.810;4.394;2023-05-13T07:32:54;20.20;99.90
23540;DHT22;11947;50.810;4.394;2023-05-13T07:35:20;20.30;99.90
23540;DHT22;11947;50.810;4.394;2023-05-13T07:37:46;20.30;99.90
23540;DHT22;11947;50.810;4.394;2023-05-13T07:40:12;20.20;99.90
23540;DHT22;11947;50.810;4.394;2023-05-13T07:42:38;20.20;99.90
23540;DHT22;11947;50.810;4.394;2023-05-13T07:45:05;20.20;99.90
23540;DHT22;11947;50.810;4.394;2023-05-13T07:47:31;20.20;99.90
23540;DHT22;11947;50.810;4.394;2023-05-13T07:49:57;20.20;99.90
23540;DHT22;11947;50.810;4.394;2023-05-13T07:52:23;20.30;99.90
23540;DHT22;11947;50.810;4.394;2023-05-13T07:54:49;20.50;99.90
23540;DHT22;11947;50.810;4.394;2023-05-13T07:57:15;20.50;99.90
23540;DHT22;11947;50.810;4.394;2023-05-13T07:59:40;20.70;99.90
23540;DHT22;11947;50.810;4.394;2023-05-13T08:02:06;20.90;99.90
23540;DHT22;11947;50.810;4.394;2023-05-13T08:04:33;21.10;99.90
23540;DHT22;11947;50.810;4.394;2023-05-13T08:06:59;21.20;99.90
23540;DHT22;11947;50.810;4.394;2023-05-13T08:09:26;21.20;99.90
23540;DHT22;11947;50.810;4.394;2023-05-13T08:11:54;21.20;99.90
23540;DHT22;11947;50.810;4.394;2023-05-13T08:14:20;21.40;99.90
23540;DHT22;11947;50.810;4.394;2023-05-13T08:16:45;21.50;99.90
23540;DHT22;11947;50.810;4.394;2023-05-13T08:19:15;21.40;99.90
23540;DHT22;11947;50.810;4.394;2023-05-13T08:21:40;21.40;99.90
23540;DHT22;11947;50.810;4.394;2023-05-13T08:24:06;21.30;99.90
23540;DHT22;11947;50.810;4.394;2023-05-13T08:26:32;21.40;99.90
23540;DHT22;11947;50.810;4.394;2023-05-13T08:28:58;21.50;99.90
23540;DHT22;11947;50.810;4.394;2023-05-13T08:31:24;21.70;99.90
23540;DHT22;11947;50.810;4.394;2023-05-13T08:33:51;21.90;99.90
23540;DHT22;11947;50.810;4.394;2023-05-13T08:36:18;22.10;99.90
23540;DHT22;11947;50.810;4.394;2023-05-13T08:38:44;22.10;99.90
23540;DHT22;11947;50.810;4.394;2023-05-13T08:41:13;22.20;99.90
23540;DHT22;11947;50.810;4.394;2023-05-13T08:43:41;22.40;99.90
23540;DHT22;11947;50.810;4.394;2023-05-13T08:46:11;22.50;99.90
23540;DHT22;11947;50.810;4.394;2023-05-13T08:48:41;22.70;99.90
23540;DHT22;11947;50.810;4.394;2023-05-13T08:51:10;22.80;99.90
23540;DHT22;11947;50.810;4.394;2023-05-13T08:53:38;22.90;99.90
23540;DHT22;11947;50.810;4.394;2023-05-13T08:56:06;23.10;99.90
23540;DHT22;11947;50.810;4.394;2023-05-13T08:58:32;23.20;99.90
23540;DHT22;11947;50.810;4.394;2023-05-13T09:00:58;23.20;99.90
23540;DHT22;11947;50.810;4.394;2023-05-13T09:03:26;23.20;99.90
23540;DHT22;11947;50.810;4.394;2023-05-13T09:05:52;23.20;99.90
23540;DHT22;11947;50.810;4.394;2023-05-13T09:08:17;23.40;99.90
23540;DHT22;11947;50.810;4.394;2023-05-13T09:10:43;23.60;99.90
23540;DHT22;11947;50.810;4.394;2023-05-13T09:13:11;23.80;99.90
23540;DHT22;11947;50.810;4.394;2023-05-13T09:15:40;23.90;99.90
23540;DHT22;11947;50.810;4.394;2023-05-13T09:18:07;24.00;99.90
23540;DHT22;11947;50.810;4.394;2023-05-13T09:20:33;24.30;99.90
23540;DHT22;11947;50.810;4.394;2023-05-13T09:25:26;24.30;99.90
23540;DHT22;11947;50.810;4.394;2023-05-13T09:27:54;24.60;99.90
23540;DHT22;11947;50.810;4.394;2023-05-13T09:30:23;24.90;99.90
23540;DHT22;11947;50.810;4.394;2023-05-13T09:33:12;25.20;99.90
23540;DHT22;11947;50.810;4.394;2023-05-13T09:35:58;25.20;99.90
23540;DHT22;11947;50.810;4.394;2023-05-13T09:38:25;25.40;99.90
23540;DHT22;11947;50.810;4.394;2023-05-13T09:40:53;25.50;99.90
23540;DHT22;11947;50.810;4.394;2023-05-13T09:43:24;25.60;99.90
23540;DHT22;11947;50.810;4.394;2023-05-13T09:46:00;25.90;99.90
23540;DHT22;11947;50.810;4.394;2023-05-13T09:48:28;26.40;99.90
23540;DHT22;11947;50.810;4.394;2023-05-13T09:50:54;26.80;99.90
23540;DHT22;11947;50.810;4.394;2023-05-13T09:53:21;27.40;99.90
23540;DHT22;11947;50.810;4.394;2023-05-13T09:55:48;27.70;99.90
23540;DHT22;11947;50.810;4.394;2023-05-13T09:58:14;27.90;99.90
23540;DHT22;11947;50.810;4.394;2023-05-13T10:00:40;27.90;99.90
23540;DHT22;11947;50.810;4.394;2023-05-13T10:03:07;28.20;99.90
23540;DHT22;11947;50.810;4.394;2023-05-13T10:05:33;28.60;99.90
23540;DHT22;11947;50.810;4.394;2023-05-13T10:08:02;30.10;99.90
23540;DHT22;11947;50.810;4.394;2023-05-13T10:10:30;31.10;99.90
23540;DHT22;11947;50.810;4.394;2023-05-13T10:13:04;32.20;99.90
23540;DHT22;11947;50.810;4.394;2023-05-13T10:15:31;33.20;99.90
23540;DHT22;11947;50.810;4.394;2023-05-13T10:17:58;34.00;98.10
23540;DHT22;11947;50.810;4.394;2023-05-13T10:20:24;34.70;96.20
23540;DHT22;11947;50.810;4.394;2023-05-13T10:22:51;35.50;93.60
23540;DHT22;11947;50.810;4.394;2023-05-13T10:25:17;36.50;89.10
23540;DHT22;11947;50.810;4.394;2023-05-13T10:27:43;37.10;86.50
23540;DHT22;11947;50.810;4.394;2023-05-13T10:30:10;37.50;82.50
23540;DHT22;11947;50.810;4.394;2023-05-13T10:32:37;38.40;82.30
23540;DHT22;11947;50.810;4.394;2023-05-13T10:35:14;40.10;75.50
23540;DHT22;11947;50.810;4.394;2023-05-13T10:45:35;42.10;59.50
23540;DHT22;11947;50.810;4.394;2023-05-13T10:48:05;41.60;58.50
23540;DHT22;11947;50.810;4.394;2023-05-13T10:50:35;42.20;61.30
23540;DHT22;11947;50.810;4.394;2023-05-13T10:53:01;43.60;57.70
23540;DHT22;11947;50.810;4.394;2023-05-13T10:55:27;44.80;56.00
23540;DHT22;11947;50.810;4.394;2023-05-13T11:00:30;46.50;53.80
23540;DHT22;11947;50.810;4.394;2023-05-13T11:02:56;46.00;51.20
23540;DHT22;11947;50.810;4.394;2023-05-13T11:05:21;47.00;48.50
23540;DHT22;11947;50.810;4.394;2023-05-13T11:07:55;47.00;49.20
23540;DHT22;11947;50.810;4.394;2023-05-13T11:18:13;48.70;46.80
23540;DHT22;11947;50.810;4.394;2023-05-13T11:20:39;48.10;47.80
23540;DHT22;11947;50.810;4.394;2023-05-13T11:23:05;46.80;46.70
23540;DHT22;11947;50.810;4.394;2023-05-13T11:25:33;46.70;47.70
23540;DHT22;11947;50.810;4.394;2023-05-13T11:27:58;47.70;48.00
23540;DHT22;11947;50.810;4.394;2023-05-13T11:30:27;46.40;46.00
23540;DHT22;11947;50.810;4.394;2023-05-13T11:32:57;46.60;48.50
23540;DHT22;11947;50.810;4.394;2023-05-13T11:35:27;46.90;47.60
23540;DHT22;11947;50.810;4.394;2023-05-13T11:37:54;46.00;47.20
23540;DHT22;11947;50.810;4.394;2023-05-13T11:40:25;45.80;46.90
23540;DHT22;11947;50.810;4.394;2023-05-13T11:42:52;44.70;46.10
23540;DHT22;11947;50.810;4.394;2023-05-13T11:45:19;45.30;48.20
23540;DHT22;11947;50.810;4.394;2023-05-13T11:47:45;46.20;46.20
23540;DHT22;11947;50.810;4.394;2023-05-13T11:50:26;46.30;47.90
23540;DHT22;11947;50.810;4.394;2023-05-13T11:52:56;43.20;45.80
23540;DHT22;11947;50.810;4.394;2023-05-13T11:55:33;40.60;49.30
23540;DHT22;11947;50.810;4.394;2023-05-13T11:58:01;40.30;48.70
23540;DHT22;11947;50.810;4.394;2023-05-13T12:00:33;39.10;50.80
23540;DHT22;11947;50.810;4.394;2023-05-13T12:03:01;36.80;50.70
23540;DHT22;11947;50.810;4.394;2023-05-13T12:05:33;35.90;53.60
23540;DHT22;11947;50.810;4.394;2023-05-13T12:07:58;36.50;54.90
23540;DHT22;11947;50.810;4.394;2023-05-13T12:10:25;39.00;52.50
23540;DHT22;11947;50.810;4.394;2023-05-13T12:12:51;40.80;49.40
23540;DHT22;11947;50.810;4.394;2023-05-13T12:15:18;40.20;48.40
23540;DHT22;11947;50.810;4.394;2023-05-13T12:17:45;38.00;50.10
23540;DHT22;11947;50.810;4.394;2023-05-13T12:20:21;35.80;54.00
23540;DHT22;11947;50.810;4.394;2023-05-13T12:33:15;34.70;55.10
23540;DHT22;11947;50.810;4.394;2023-05-13T12:35:42;35.40;55.40
23540;DHT22;11947;50.810;4.394;2023-05-13T12:38:16;35.90;53.70
23540;DHT22;11947;50.810;4.394;2023-05-13T12:40:45;37.50;54.30
23540;DHT22;11947;50.810;4.394;2023-05-13T12:43:12;36.40;51.50
23540;DHT22;11947;50.810;4.394;2023-05-13T12:45:40;34.20;52.90
23540;DHT22;11947;50.810;4.394;2023-05-13T12:48:06;33.10;55.00
23540;DHT22;11947;50.810;4.394;2023-05-13T12:50:32;32.10;57.20
23540;DHT22;11947;50.810;4.394;2023-05-13T12:52:57;31.70;57.10
23540;DHT22;11947;50.810;4.394;2023-05-13T12:55:24;32.70;57.80
23540;DHT22;11947;50.810;4.394;2023-05-13T12:57:55;34.40;54.40
23540;DHT22;11947;50.810;4.394;2023-05-13T13:00:21;35.90;52.60
23540;DHT22;11947;50.810;4.394;2023-05-13T13:02:46;38.40;52.10
23540;DHT22;11947;50.810;4.394;2023-05-13T13:05:12;39.90;51.10
23540;DHT22;11947;50.810;4.394;2023-05-13T13:07:38;40.10;47.50
23540;DHT22;11947;50.810;4.394;2023-05-13T13:10:07;40.50;48.50
23540;DHT22;11947;50.810;4.394;2023-05-13T13:12:32;41.70;49.80
23540;DHT22;11947;50.810;4.394;2023-05-13T13:14:58;41.30;45.70
23540;DHT22;11947;50.810;4.394;2023-05-13T13:17:24;40.00;48.00
23540;DHT22;11947;50.810;4.394;2023-05-13T13:19:49;38.20;49.80
23540;DHT22;11947;50.810;4.394;2023-05-13T13:22:15;37.20;49.70
23540;DHT22;11947;50.810;4.394;2023-05-13T13:24:41;37.40;50.70
23540;DHT22;11947;50.810;4.394;2023-05-13T13:27:09;39.00;50.20
23540;DHT22;11947;50.810;4.394;2023-05-13T13:29:34;40.50;48.40
23540;DHT22;11947;50.810;4.394;2023-05-13T13:32:00;41.20;47.90
23540;DHT22;11947;50.810;4.394;2023-05-13T13:34:26;41.70;46.30
23540;DHT22;11947;50.810;4.394;2023-05-13T13:36:51;42.50;46.20
23540;DHT22;11947;50.810;4.394;2023-05-13T13:39:17;43.10;44.80
23540;DHT22;11947;50.810;4.394;2023-05-13T13:41:43;42.00;45.30
23540;DHT22;11947;50.810;4.394;2023-05-13T13:44:08;41.00;45.80
23540;DHT22;11947;50.810;4.394;2023-05-13T13:46:34;40.40;44.50
23540;DHT22;11947;50.810;4.394;2023-05-13T13:48:59;38.60;47.30
23540;DHT22;11947;50.810;4.394;2023-05-13T13:51:25;39.30;46.60
23540;DHT22;11947;50.810;4.394;2023-05-13T13:53:51;39.80;47.10
23540;DHT22;11947;50.810;4.394;2023-05-13T13:56:16;41.20;46.30
23540;DHT22;11947;50.810;4.394;2023-05-13T13:58:42;40.70;46.00
23540;DHT22;11947;50.810;4.394;2023-05-13T14:01:07;39.40;45.90
23540;DHT22;11947;50.810;4.394;2023-05-13T14:03:33;38.40;47.90
23540;DHT22;11947;50.810;4.394;2023-05-13T14:05:59;38.10;47.30
23540;DHT22;11947;50.810;4.394;2023-05-13T14:08:28;38.30;49.40
23540;DHT22;11947;50.810;4.394;2023-05-13T14:10:54;38.10;46.20
23540;DHT22;11947;50.810;4.394;2023-05-13T14:13:19;36.50;47.10
23540;DHT22;11947;50.810;4.394;2023-05-13T14:15:45;35.30;48.40
23540;DHT22;11947;50.810;4.394;2023-05-13T14:18:10;35.00;49.60
23540;DHT22;11947;50.810;4.394;2023-05-13T14:20:36;33.80;51.00
23540;DHT22;11947;50.810;4.394;2023-05-13T14:23:03;32.40;54.40
23540;DHT22;11947;50.810;4.394;2023-05-13T14:25:28;31.30;55.10
23540;DHT22;11947;50.810;4.394;2023-05-13T14:27:54;30.40;58.90
23540;DHT22;11947;50.810;4.394;2023-05-13T14:30:20;29.60;55.40
23540;DHT22;11947;50.810;4.394;2023-05-13T14:32:45;29.30;61.00
23540;DHT22;11947;50.810;4.394;2023-05-13T14:35:12;28.80;57.00
23540;DHT22;11947;50.810;4.394;2023-05-13T14:37:38;28.30;58.70
23540;DHT22;11947;50.810;4.394;2023-05-13T14:40:03;27.80;59.30
23540;DHT22;11947;50.810;4.394;2023-05-13T14:42:29;27.40;59.70
23540;DHT22;11947;50.810;4.394;2023-05-13T14:44:55;26.80;60.60
23540;DHT22;11947;50.810;4.394;2023-05-13T14:47:21;26.30;60.20
23540;DHT22;11947;50.810;4.394;2023-05-13T14:49:46;25.80;62.70
23540;DHT22;11947;50.810;4.394;2023-05-13T14:52:12;25.70;63.90
23540;DHT22;11947;50.810;4.394;2023-05-13T14:54:37;25.80;65.90
23540;DHT22;11947;50.810;4.394;2023-05-13T14:57:04;25.80;64.90
23540;DHT22;11947;50.810;4.394;2023-05-13T14:59:32;25.60;65.80
23540;DHT22;11947;50.810;4.394;2023-05-13T15:01:57;25.70;68.20
23540;DHT22;11947;50.810;4.394;2023-05-13T15:04:23;25.70;67.10
23540;DHT22;11947;50.810;4.394;2023-05-13T15:06:48;25.80;75.70
23540;DHT22;11947;50.810;4.394;2023-05-13T15:09:15;26.00;66.40
23540;DHT22;11947;50.810;4.394;2023-05-13T15:11:41;25.90;64.00
23540;DHT22;11947;50.810;4.394;2023-05-13T15:14:06;25.70;64.70
23540;DHT22;11947;50.810;4.394;2023-05-13T15:16:32;25.60;65.40
23540;DHT22;11947;50.810;4.394;2023-05-13T15:18:58;25.50;64.80
23540;DHT22;11947;50.810;4.394;2023-05-13T15:21:23;25.30;71.70
23540;DHT22;11947;50.810;4.394;2023-05-13T15:23:49;25.20;81.10
23540;DHT22;11947;50.810;4.394;2023-05-13T15:26:14;25.30;89.00
23540;DHT22;11947;50.810;4.394;2023-05-13T15:28:40;25.50;90.10
23540;DHT22;11947;50.810;4.394;2023-05-13T15:31:06;25.70;90.30
23540;DHT22;11947;50.810;4.394;2023-05-13T15:33:31;25.80;90.70
23540;DHT22;11947;50.810;4.394;2023-05-13T15:35:57;25.70;91.40
23540;DHT22;11947;50.810;4.394;2023-05-13T15:38:23;25.40;91.90
23540;DHT22;11947;50.810;4.394;2023-05-13T15:40:49;25.20;91.20
23540;DHT22;11947;50.810;4.394;2023-05-13T15:43:15;25.10;90.70
23540;DHT22;11947;50.810;4.394;2023-05-13T15:45:40;25.00;90.00
23540;DHT22;11947;50.810;4.394;2023-05-13T15:48:06;24.90;89.10
23540;DHT22;11947;50.810;4.394;2023-05-13T15:50:32;24.60;89.70
23540;DHT22;11947;50.810;4.394;2023-05-13T15:52:58;24.50;90.50
23540;DHT22;11947;50.810;4.394;2023-05-13T15:55:24;24.50;87.30
23540;DHT22;11947;50.810;4.394;2023-05-13T15:57:50;24.60;86.40
23540;DHT22;11947;50.810;4.394;2023-05-13T16:00:16;24.50;84.90